Station: EBLG - 26/09/2017 01:20Z (il y a 25 minutes)
EBLG 260120Z VRB02KT 9999 SCT048 12/11 Q1020 NOSIG
Vent de direction variable: 2 kt
Visibilité > 10 km
Ciel 50% couvert à 4800 pieds
Température: +12ºC - Point de rosée: +11ºC - QNH: 1020 hPa
Pas de changement significatif prévu dans les 2 heures qui suivent l'observation